| time (UTC) | temp F | wind direction | speed MPH | gust MPH | rain 1hr in | rain 24hr in | rain mn in | humidity % | barometer mb |
| 20260831092559 | 80 | 77 | 4.0 | 9.0 | 0.00 | 0.11 | 0.00 | 62 | 1012.0 |
| 20260831092100 | 79 | 53 | 3.0 | 8.0 | 0.00 | 0.11 | 0.00 | 62 | 1011.9 |
| 20260831091604 | 79 | 316 | 2.0 | 8.0 | 0.00 | 0.11 | 0.00 | 64 | 1011.7 |
| 20260831091059 | 79 | 73 | 3.0 | 7.0 | 0.00 | 0.11 | 0.00 | 64 | 1011.7 |
| 20260831090559 | 79 | 9 | 1.0 | 4.0 | 0.00 | 0.11 | 0.00 | 63 | 1011.8 |
| 20260831090115 | 79 | 81 | 1.0 | 9.0 | 0.00 | 0.11 | 0.00 | 63 | 1011.8 |
| 20260831085600 | 79 | 75 | 1.0 | 9.0 | 0.00 | 0.11 | 0.00 | 63 | 1011.9 |
| 20260831085100 | 79 | 29 | 3.0 | 7.0 | 0.00 | 0.11 | 0.00 | 64 | 1011.9 |
| 20260831084611 | 79 | 273 | 2.0 | 10.0 | 0.00 | 0.11 | 0.00 | 64 | 1012.0 |
| 20260831084059 | 79 | 331 | 3.0 | 10.0 | 0.00 | 0.11 | 0.00 | 65 | 1012.0 |
| 20260831083559 | 79 | 347 | 4.0 | 11.0 | 0.00 | 0.11 | 0.00 | 65 | 1012.0 |
| 20260831083102 | 80 | 314 | 3.0 | 13.0 | 0.00 | 0.11 | 0.00 | 65 | 1012.0 |
| 20260831082559 | 80 | 14 | 7.0 | 16.0 | 0.00 | 0.11 | 0.00 | 64 | 1012.0 |
| 20260831082100 | 80 | 346 | 8.0 | 19.0 | 0.00 | 0.11 | 0.00 | 63 | 1011.9 |
| 20260831081605 | 80 | 307 | 10.0 | 19.0 | 0.00 | 0.11 | 0.00 | 64 | 1011.8 |
| 20260831081059 | 79 | 326 | 5.0 | 13.0 | 0.00 | 0.11 | 0.00 | 66 | 1011.9 |
| 20260831080559 | 80 | 79 | 5.0 | 15.0 | 0.00 | 0.11 | 0.00 | 65 | 1011.9 |
| 20260831080108 | 80 | 22 | 8.0 | 18.0 | 0.00 | 0.11 | 0.00 | 65 | 1011.8 |
| 20260831075602 | 80 | 345 | 6.0 | 18.0 | 0.00 | 0.11 | 0.00 | 62 | 1011.8 |
| 20260831075059 | 80 | 335 | 8.0 | 18.0 | 0.00 | 0.11 | 0.00 | 62 | 1011.8 |
| 20260831074602 | 80 | 1 | 6.0 | 17.0 | 0.00 | 0.11 | 0.00 | 62 | 1011.9 |
| 20260831074059 | 80 | 27 | 7.0 | 18.0 | 0.01 | 0.11 | 0.00 | 62 | 1011.8 |
| 20260831073559 | 80 | 292 | 8.0 | 19.0 | 0.04 | 0.11 | 0.00 | 64 | 1012.0 |
| 20260831073105 | 79 | 331 | 12.0 | 19.0 | 0.06 | 0.11 | 0.00 | 65 | 1012.1 |
| 20260831072558 | 79 | 356 | 9.0 | 21.0 | 0.06 | 0.11 | 0.00 | 67 | 1012.3 |
| 20260831072058 | 79 | 24 | 12.0 | 21.0 | 0.06 | 0.11 | 0.00 | 66 | 1012.5 |
| 20260831071603 | 77 | 298 | 11.0 | 19.0 | 0.06 | 0.11 | 0.00 | 71 | 1012.7 |
| 20260831071059 | 76 | 43 | 7.0 | 16.0 | 0.06 | 0.11 | 0.00 | 77 | 1012.9 |
| 20260831070559 | 75 | 348 | 6.0 | 16.0 | 0.06 | 0.11 | 0.00 | 78 | 1013.2 |
| 20260831070115 | 74 | 13 | 8.0 | 16.0 | 0.06 | 0.11 | 0.00 | 81 | 1013.3 |
| 20260831065559 | 73 | 330 | 7.0 | 20.0 | 0.06 | 0.15 | 0.11 | 83 | 1013.6 |
| 20260831065058 | 73 | 299 | 10.0 | 20.0 | 0.06 | 0.15 | 0.11 | 82 | 1014.1 |
| 20260831064614 | 74 | 315 | 14.0 | 20.0 | 0.06 | 0.15 | 0.11 | 81 | 1014.1 |
| 20260831064059 | 76 | 297 | 8.0 | 15.0 | 0.04 | 0.13 | 0.09 | 76 | 1013.7 |
| 20260831063559 | 77 | 300 | 8.0 | 15.0 | 0.02 | 0.11 | 0.07 | 79 | 1014.1 |
| 20260831063110 | 76 | 314 | 8.0 | 15.0 | 0.00 | 0.09 | 0.05 | 77 | 1014.3 |
| 20260831062603 | 76 | 312 | 7.0 | 16.0 | 0.00 | 0.09 | 0.05 | 76 | 1014.7 |
| 20260831062100 | 76 | 342 | 8.0 | 16.0 | 0.00 | 0.09 | 0.05 | 75 | 1014.6 |
| 20260831061608 | 76 | 288 | 6.0 | 16.0 | 0.02 | 0.09 | 0.05 | 75 | 1014.6 |
| 20260831061101 | 76 | 320 | 5.0 | 13.0 | 0.03 | 0.09 | 0.05 | 75 | 1014.7 |
| 20260831060559 | 76 | 272 | 7.0 | 13.0 | 0.03 | 0.09 | 0.05 | 75 | 1014.7 |
| 20260831060112 | 76 | 252 | 8.0 | 18.0 | 0.03 | 0.09 | 0.05 | 77 | 1014.7 |
| 20260831055559 | 76 | 224 | 8.0 | 18.0 | 0.03 | 0.09 | 0.05 | 77 | 1015.0 |
| 20260831055059 | 75 | 306 | 10.0 | 18.0 | 0.03 | 0.09 | 0.05 | 82 | 1015.1 |
| 20260831054606 | 76 | 224 | 11.0 | 18.0 | 0.03 | 0.09 | 0.05 | 84 | 1015.2 |
| 20260831054059 | 77 | 104 | 8.0 | 18.0 | 0.03 | 0.09 | 0.05 | 81 | 1014.9 |
| 20260831053602 | 77 | 336 | 8.0 | 17.0 | 0.05 | 0.09 | 0.05 | 81 | 1014.6 |
| 20260831053108 | 79 | 236 | 10.0 | 15.0 | 0.05 | 0.09 | 0.05 | 77 | 1014.7 |
| 20260831052600 | 80 | 221 | 1.0 | 11.0 | 0.05 | 0.09 | 0.05 | 73 | 1014.9 |
| 20260831052058 | 80 | 315 | 3.0 | 11.0 | 0.05 | 0.09 | 0.05 | 71 | 1014.7 |
| 20260831051608 | 81 | 216 | 3.0 | 12.0 | 0.03 | 0.07 | 0.03 | 71 | 1014.4 |
| 20260831051059 | 81 | 205 | 3.0 | 12.0 | 0.02 | 0.06 | 0.02 | 69 | 1014.2 |
| 20260831050558 | 82 | 255 | 8.0 | 16.0 | 0.02 | 0.06 | 0.02 | 73 | 1014.2 |
| 20260831050119 | 82 | 259 | 5.0 | 16.0 | 0.02 | 0.06 | 0.02 | 72 | 1013.7 |
| 20260831045559 | 81 | 205 | 4.0 | 16.0 | 0.02 | 0.06 | 0.02 | 72 | 1013.3 |
| 20260831045059 | 81 | 267 | 4.0 | 20.0 | 0.02 | 0.06 | 0.02 | 76 | 1012.9 |
| 20260831044612 | 80 | 9 | 9.0 | 20.0 | 0.02 | 0.06 | 0.02 | 74 | 1012.5 |
| 20260831044058 | 84 | 273 | 11.0 | 23.0 | 0.02 | 0.06 | 0.02 | 69 | 1012.4 |
| 20260831043558 | 87 | 269 | 12.0 | 24.0 | 0.00 | 0.04 | 0.00 | 57 | 1011.8 |
| 20260831043106 | 87 | 303 | 12.0 | 27.0 | 0.00 | 0.04 | 0.00 | 53 | 1011.4 |
| 20260831042601 | 88 | 153 | 14.0 | 28.0 | 0.00 | 0.04 | 0.00 | 51 | 1011.5 |
| 20260831042058 | 92 | 237 | 14.0 | 28.0 | 0.00 | 0.04 | 0.00 | 47 | 1011.6 |
| 20260831041607 | 98 | 174 | 4.0 | 8.0 | 0.00 | 0.04 | 0.00 | 38 | 1011.3 |
| 20260831041100 | 98 | 160 | 2.0 | 3.0 | 0.00 | 0.04 | 0.00 | 38 | 1010.2 |
| 20260831040600 | 98 | 198 | 2.0 | 3.0 | 0.00 | 0.04 | 0.00 | 38 | 1010.2 |
| 20260831035558 | 98 | 152 | 1.0 | 3.0 | 0.00 | 0.04 | 0.00 | 37 | 1009.5 |
| 20260831035058 | 98 | 161 | 1.0 | 3.0 | 0.00 | 0.04 | 0.00 | 37 | 1009.5 |
| 20260831034608 | 98 | 178 | 1.0 | 3.0 | 0.00 | 0.04 | 0.00 | 37 | 1009.5 |
| 20260831034100 | 98 | 182 | 0.0 | 2.0 | 0.00 | 0.04 | 0.00 | 37 | 1009.6 |
| 20260831033559 | 98 | 264 | 0.0 | 4.0 | 0.00 | 0.04 | 0.00 | 37 | 1009.5 |
| 20260831033107 | 98 | 165 | 2.0 | 4.0 | 0.00 | 0.04 | 0.00 | 36 | 1009.7 |
| 20260831032559 | 98 | 164 | 1.0 | 4.0 | 0.00 | 0.04 | 0.00 | 36 | 1009.8 |
| 20260831032102 | 98 | 179 | 2.0 | 4.0 | 0.00 | 0.04 | 0.00 | 36 | 1009.8 |
| 20260831031601 | 99 | 171 | 2.0 | 4.0 | 0.00 | 0.04 | 0.00 | 36 | 1009.8 |
| 20260831031102 | 99 | 210 | 1.0 | 3.0 | 0.00 | 0.04 | 0.00 | 36 | 1009.8 |
| 20260831030602 | 99 | 213 | 2.0 | 3.0 | 0.00 | 0.04 | 0.00 | 36 | 1009.6 |
| 20260831030110 | 99 | 172 | 1.0 | 5.0 | 0.00 | 0.04 | 0.00 | 35 | 1009.6 |
| 20260831025600 | 99 | 162 | 2.0 | 5.0 | 0.00 | 0.04 | 0.00 | 35 | 1009.4 |
| 20260831025059 | 99 | 203 | 2.0 | 4.0 | 0.00 | 0.04 | 0.00 | 35 | 1009.3 |
| 20260831024627 | 99 | 199 | 2.0 | 4.0 | 0.00 | 0.04 | 0.00 | 35 | 1009.3 |
| 20260831024100 | 99 | 186 | 2.0 | 4.0 | 0.00 | 0.04 | 0.00 | 35 | 1009.3 |
| 20260831023559 | 99 | 139 | 2.0 | 5.0 | 0.00 | 0.04 | 0.00 | 35 | 1009.3 |
| 20260831023105 | 100 | 282 | 2.0 | 6.0 | 0.00 | 0.04 | 0.00 | 35 | 1009.2 |
| 20260831022559 | 100 | 200 | 1.0 | 8.0 | 0.00 | 0.04 | 0.00 | 35 | 1009.1 |
| 20260831022059 | 100 | 207 | 4.0 | 8.0 | 0.00 | 0.04 | 0.00 | 35 | 1008.9 |
| 20260831021621 | 100 | 229 | 1.0 | 5.0 | 0.00 | 0.04 | 0.00 | 35 | 1008.9 |
| 20260831021059 | 100 | 228 | 2.0 | 5.0 | 0.00 | 0.04 | 0.00 | 36 | 1008.9 |
| 20260831020600 | 100 | 166 | 2.0 | 8.0 | 0.00 | 0.04 | 0.00 | 36 | 1008.8 |
| 20260831020111 | 100 | 209 | 3.0 | 8.0 | 0.00 | 0.04 | 0.00 | 36 | 1008.7 |
| 20260831015559 | 100 | 217 | 5.0 | 8.0 | 0.00 | 0.04 | 0.00 | 35 | 1008.5 |
| 20260831015059 | 101 | 229 | 1.0 | 7.0 | 0.00 | 0.04 | 0.00 | 35 | 1008.3 |
| 20260831014626 | 101 | 321 | 2.0 | 7.0 | 0.00 | 0.04 | 0.00 | 35 | 1008.4 |
| 20260831014059 | 101 | 217 | 3.0 | 7.0 | 0.00 | 0.04 | 0.00 | 34 | 1008.3 |
| 20260831013559 | 102 | 172 | 4.0 | 7.0 | 0.00 | 0.04 | 0.00 | 35 | 1008.3 |
| 20260831013106 | 102 | 268 | 3.0 | 9.0 | 0.00 | 0.04 | 0.00 | 35 | 1008.2 |
| 20260831012600 | 102 | 171 | 3.0 | 9.0 | 0.00 | 0.04 | 0.00 | 35 | 1008.3 |
| 20260831012100 | 103 | 310 | 4.0 | 9.0 | 0.00 | 0.04 | 0.00 | 34 | 1008.3 |
| 20260831011615 | 103 | 227 | 4.0 | 9.0 | 0.00 | 0.04 | 0.00 | 34 | 1008.4 |
| 20260831011059 | 103 | 222 | 2.0 | 5.0 | 0.00 | 0.04 | 0.00 | 34 | 1008.4 |
| 20260831010559 | 103 | 131 | 1.0 | 6.0 | 0.00 | 0.04 | 0.00 | 35 | 1008.5 |
| 20260831010107 | 103 | 311 | 1.0 | 9.0 | 0.00 | 0.04 | 0.00 | 35 | 1008.4 |
| 20260831005559 | 103 | 122 | 4.0 | 9.0 | 0.00 | 0.04 | 0.00 | 35 | 1008.5 |
| 20260831005058 | 103 | 139 | 3.0 | 6.0 | 0.00 | 0.04 | 0.00 | 34 | 1008.4 |
| 20260831004604 | 103 | 214 | 3.0 | 11.0 | 0.00 | 0.04 | 0.00 | 34 | 1008.5 |
| 20260831004101 | 103 | 207 | 2.0 | 11.0 | 0.00 | 0.04 | 0.00 | 34 | 1008.6 |
| 20260831003601 | 103 | 174 | 6.0 | 10.0 | 0.00 | 0.04 | 0.00 | 34 | 1008.6 |
| 20260831003100 | 103 | 135 | 6.0 | 10.0 | 0.00 | 0.04 | 0.00 | 34 | 1008.6 |
| 20260831002602 | 103 | 173 | 5.0 | 8.0 | 0.00 | 0.04 | 0.00 | 35 | 1008.6 |
| 20260831002058 | 103 | 119 | 4.0 | 10.0 | 0.00 | 0.04 | 0.00 | 34 | 1008.6 |
| 20260831001607 | 104 | 126 | 5.0 | 10.0 | 0.00 | 0.04 | 0.00 | 34 | 1008.6 |
| 20260831001103 | 103 | 156 | 4.0 | 8.0 | 0.00 | 0.04 | 0.00 | 34 | 1008.7 |
| 20260831000559 | 103 | 106 | 4.0 | 10.0 | 0.00 | 0.04 | 0.00 | 34 | 1008.7 |
| 20260831000108 | 103 | 148 | 5.0 | 10.0 | 0.00 | 0.04 | 0.00 | 34 | 1008.7 |
| 20260830235559 | 103 | 137 | 3.0 | 10.0 | 0.00 | 0.04 | 0.00 | 34 | 1008.8 |
| 20260830235058 | 104 | 134 | 4.0 | 10.0 | 0.00 | 0.04 | 0.00 | 33 | 1008.9 |
| 20260830234603 | 105 | 210 | 5.0 | 10.0 | 0.00 | 0.04 | 0.00 | 33 | 1009.0 |
| 20260830234059 | 105 | 252 | 5.0 | 13.0 | 0.00 | 0.04 | 0.00 | 32 | 1009.0 |
| 20260830233559 | 105 | 179 | 5.0 | 13.0 | 0.00 | 0.04 | 0.00 | 32 | 1009.0 |
| 20260830233108 | 105 | 134 | 8.0 | 12.0 | 0.00 | 0.04 | 0.00 | 32 | 1009.1 |
| 20260830232602 | 104 | 176 | 5.0 | 10.0 | 0.00 | 0.04 | 0.00 | 33 | 1008.9 |
| 20260830232059 | 104 | 144 | 2.0 | 10.0 | 0.00 | 0.04 | 0.00 | 33 | 1009.0 |
| 20260830231610 | 105 | 183 | 4.0 | 10.0 | 0.00 | 0.04 | 0.00 | 32 | 1009.2 |
| 20260830231059 | 105 | 109 | 5.0 | 10.0 | 0.00 | 0.04 | 0.00 | 32 | 1009.3 |
| 20260830230559 | 105 | 114 | 2.0 | 9.0 | 0.00 | 0.04 | 0.00 | 33 | 1009.3 |
| 20260830230106 | 104 | 218 | 5.0 | 11.0 | 0.00 | 0.04 | 0.00 | 34 | 1009.4 |
| 20260830225559 | 105 | 148 | 2.0 | 11.0 | 0.00 | 0.04 | 0.00 | 34 | 1009.5 |
| 20260830225059 | 104 | 233 | 6.0 | 11.0 | 0.00 | 0.04 | 0.00 | 35 | 1009.5 |
| 20260830224636 | 103 | 98 | 4.0 | 11.0 | 0.00 | 0.04 | 0.00 | 35 | 1009.6 |
| 20260830224059 | 104 | 110 | 5.0 | 10.0 | 0.00 | 0.04 | 0.00 | 34 | 1009.7 |
| 20260830223558 | 104 | 170 | 5.0 | 19.0 | 0.00 | 0.04 | 0.00 | 35 | 1009.9 |
| 20260830223104 | 104 | 163 | 8.0 | 19.0 | 0.00 | 0.04 | 0.00 | 35 | 1010.0 |
| 20260830222602 | 103 | 94 | 4.0 | 10.0 | 0.00 | 0.04 | 0.00 | 35 | 1010.0 |
| 20260830222059 | 103 | 0 | 5.0 | 10.0 | 0.00 | 0.04 | 0.00 | 34 | 1010.1 |
| 20260830221616 | 104 | 126 | 3.0 | 8.0 | 0.00 | 0.04 | 0.00 | 34 | 1010.3 |
| 20260830221059 | 105 | 188 | 2.0 | 8.0 | 0.00 | 0.04 | 0.00 | 34 | 1010.3 |
| 20260830220600 | 104 | 259 | 2.0 | 10.0 | 0.00 | 0.04 | 0.00 | 34 | 1010.4 |
| 20260830220143 | 104 | 179 | 3.0 | 10.0 | 0.00 | 0.04 | 0.00 | 35 | 1010.4 |
| 20260830215559 | 103 | 134 | 5.0 | 11.0 | 0.00 | 0.04 | 0.00 | 34 | 1010.6 |
| 20260830215100 | 103 | 170 | 1.0 | 11.0 | 0.00 | 0.04 | 0.00 | 35 | 1010.8 |
| 20260830214605 | 104 | 115 | 5.0 | 10.0 | 0.00 | 0.04 | 0.00 | 35 | 1010.9 |
| 20260830214100 | 104 | 203 | 3.0 | 9.0 | 0.00 | 0.04 | 0.00 | 35 | 1010.9 |
| 20260830213559 | 104 | 120 | 4.0 | 8.0 | 0.00 | 0.04 | 0.00 | 35 | 1011.0 |
| 20260830213109 | 104 | 138 | 5.0 | 8.0 | 0.00 | 0.04 | 0.00 | 35 | 1011.1 |
| 20260830212559 | 103 | 133 | 4.0 | 8.0 | 0.00 | 0.04 | 0.00 | 36 | 1011.2 |
| 20260830212059 | 103 | 124 | 4.0 | 10.0 | 0.00 | 0.04 | 0.00 | 35 | 1011.4 |
| 20260830211605 | 103 | 117 | 4.0 | 10.0 | 0.00 | 0.04 | 0.00 | 35 | 1011.3 |
| 20260830211104 | 104 | 108 | 4.0 | 10.0 | 0.00 | 0.04 | 0.00 | 35 | 1011.5 |
| 20260830210559 | 104 | 94 | 3.0 | 10.0 | 0.00 | 0.04 | 0.00 | 34 | 1011.6 |
| 20260830210105 | 104 | 105 | 4.0 | 10.0 | 0.00 | 0.04 | 0.00 | 34 | 1011.7 |
| 20260830205559 | 103 | 83 | 2.0 | 7.0 | 0.00 | 0.04 | 0.00 | 35 | 1011.8 |
| 20260830205101 | 104 | 130 | 3.0 | 6.0 | 0.00 | 0.04 | 0.00 | 34 | 1011.9 |
| 20260830204601 | 103 | 87 | 2.0 | 7.0 | 0.00 | 0.04 | 0.00 | 34 | 1012.0 |
| 20260830204059 | 103 | 255 | 2.0 | 8.0 | 0.00 | 0.04 | 0.00 | 35 | 1012.2 |
| 20260830203559 | 102 | 126 | 5.0 | 8.0 | 0.00 | 0.04 | 0.00 | 35 | 1012.3 |
| 20260830203116 | 102 | 127 | 3.0 | 9.0 | 0.00 | 0.04 | 0.00 | 35 | 1012.4 |
| 20260830202559 | 101 | 128 | 3.0 | 9.0 | 0.00 | 0.04 | 0.00 | 35 | 1012.4 |
| 20260830202059 | 102 | 129 | 4.0 | 9.0 | 0.00 | 0.04 | 0.00 | 35 | 1012.5 |
| 20260830201606 | 102 | 112 | 2.0 | 11.0 | 0.00 | 0.04 | 0.00 | 36 | 1012.5 |
| 20260830201059 | 101 | 124 | 6.0 | 11.0 | 0.00 | 0.04 | 0.00 | 36 | 1012.7 |
| 20260830200559 | 101 | 103 | 3.0 | 11.0 | 0.00 | 0.04 | 0.00 | 36 | 1012.8 |
| 20260830200105 | 102 | 158 | 3.0 | 11.0 | 0.00 | 0.04 | 0.00 | 36 | 1012.8 |
| 20260830195602 | 101 | 116 | 2.0 | 9.0 | 0.00 | 0.04 | 0.00 | 37 | 1012.9 |
| 20260830195102 | 101 | 124 | 4.0 | 9.0 | 0.00 | 0.04 | 0.00 | 37 | 1012.9 |
| 20260830194605 | 102 | 184 | 5.0 | 9.0 | 0.00 | 0.04 | 0.00 | 37 | 1013.0 |
| 20260830194102 | 102 | 137 | 2.0 | 9.0 | 0.00 | 0.04 | 0.00 | 36 | 1013.1 |
| 20260830193558 | 102 | 144 | 5.0 | 9.0 | 0.00 | 0.04 | 0.00 | 36 | 1013.2 |
| 20260830193113 | 102 | 153 | 5.0 | 9.0 | 0.00 | 0.04 | 0.00 | 36 | 1013.2 |
| 20260830192558 | 101 | 84 | 3.0 | 7.0 | 0.00 | 0.04 | 0.00 | 37 | 1013.3 |
| 20260830192101 | 100 | 129 | 2.0 | 6.0 | 0.00 | 0.04 | 0.00 | 37 | 1013.4 |
| 20260830191621 | 100 | 79 | 2.0 | 6.0 | 0.00 | 0.04 | 0.00 | 37 | 1013.4 |
| 20260830191059 | 100 | 96 | 1.0 | 10.0 | 0.00 | 0.04 | 0.00 | 37 | 1013.5 |
| 20260830190559 | 101 | 244 | 3.0 | 10.0 | 0.00 | 0.04 | 0.00 | 38 | 1013.7 |
| 20260830190109 | 99 | 123 | 1.0 | 7.0 | 0.00 | 0.04 | 0.00 | 38 | 1013.7 |
| 20260830185624 | 100 | 121 | 3.0 | 7.0 | 0.00 | 0.04 | 0.00 | 38 | 1013.8 |
| 20260830185105 | 100 | 118 | 2.0 | 7.0 | 0.00 | 0.04 | 0.00 | 37 | 1013.9 |
| 20260830184609 | 100 | 172 | 2.0 | 8.0 | 0.00 | 0.04 | 0.00 | 39 | 1014.0 |
| 20260830184059 | 98 | 121 | 3.0 | 8.0 | 0.00 | 0.04 | 0.00 | 39 | 1014.1 |
| 20260830183602 | 99 | 125 | 3.0 | 6.0 | 0.00 | 0.04 | 0.00 | 38 | 1014.1 |
| 20260830183103 | 98 | 286 | 1.0 | 8.0 | 0.00 | 0.04 | 0.00 | 39 | 1014.2 |
| 20260830182559 | 97 | 110 | 2.0 | 8.0 | 0.00 | 0.04 | 0.00 | 38 | 1014.2 |
| 20260830182059 | 98 | 207 | 4.0 | 8.0 | 0.00 | 0.04 | 0.00 | 38 | 1014.3 |
| 20260830181604 | 100 | 137 | 2.0 | 8.0 | 0.00 | 0.04 | 0.00 | 36 | 1014.3 |
| 20260830181100 | 100 | 178 | 2.0 | 7.0 | 0.00 | 0.04 | 0.00 | 37 | 1014.4 |
| 20260830180559 | 100 | 229 | 1.0 | 7.0 | 0.00 | 0.04 | 0.00 | 37 | 1014.5 |
| 20260830180107 | 99 | 243 | 2.0 | 7.0 | 0.00 | 0.04 | 0.00 | 37 | 1014.6 |
| 20260830175559 | 98 | 173 | 3.0 | 7.0 | 0.00 | 0.04 | 0.00 | 39 | 1014.6 |
| 20260830175102 | 97 | 88 | 4.0 | 7.0 | 0.00 | 0.04 | 0.00 | 38 | 1014.6 |
| 20260830174603 | 98 | 121 | 2.0 | 5.0 | 0.00 | 0.04 | 0.00 | 39 | 1014.6 |
| 20260830174058 | 97 | 198 | 1.0 | 5.0 | 0.00 | 0.04 | 0.00 | 40 | 1014.7 |
| 20260830173558 | 97 | 301 | 1.0 | 7.0 | 0.00 | 0.04 | 0.00 | 40 | 1014.7 |
| 20260830173107 | 97 | 138 | 3.0 | 7.0 | 0.00 | 0.04 | 0.00 | 40 | 1014.7 |
| 20260830172601 | 97 | 113 | 1.0 | 6.0 | 0.00 | 0.04 | 0.00 | 40 | 1014.7 |
| 20260830172058 | 96 | 124 | 0.0 | 6.0 | 0.00 | 0.04 | 0.00 | 41 | 1014.9 |
| 20260830171613 | 96 | 87 | 2.0 | 6.0 | 0.00 | 0.04 | 0.00 | 41 | 1015.0 |
| 20260830171059 | 96 | 89 | 1.0 | 6.0 | 0.00 | 0.04 | 0.00 | 41 | 1014.9 |
| 20260830170559 | 96 | 129 | 1.0 | 6.0 | 0.00 | 0.04 | 0.00 | 41 | 1014.9 |
| 20260830170109 | 95 | 111 | 1.0 | 8.0 | 0.00 | 0.04 | 0.00 | 42 | 1014.9 |
| 20260830165559 | 94 | 93 | 3.0 | 8.0 | 0.00 | 0.04 | 0.00 | 42 | 1014.9 |
| 20260830165059 | 95 | 71 | 2.0 | 5.0 | 0.00 | 0.04 | 0.00 | 43 | 1014.9 |
| 20260830164612 | 94 | 36 | 0.0 | 6.0 | 0.00 | 0.04 | 0.00 | 43 | 1014.9 |
| 20260830164102 | 93 | 135 | 1.0 | 6.0 | 0.00 | 0.04 | 0.00 | 44 | 1014.9 |
| 20260830163559 | 93 | 86 | 3.0 | 9.0 | 0.00 | 0.04 | 0.00 | 45 | 1015.0 |
| 20260830163103 | 92 | 129 | 4.0 | 9.0 | 0.00 | 0.04 | 0.00 | 45 | 1014.9 |
| 20260830162559 | 92 | 161 | 4.0 | 8.0 | 0.00 | 0.04 | 0.00 | 45 | 1014.9 |
| 20260830162058 | 92 | 119 | 5.0 | 9.0 | 0.00 | 0.04 | 0.00 | 45 | 1014.9 |
| 20260830161613 | 92 | 131 | 4.0 | 10.0 | 0.00 | 0.04 | 0.00 | 46 | 1014.8 |
| 20260830161058 | 92 | 144 | 3.0 | 10.0 | 0.00 | 0.04 | 0.00 | 45 | 1014.7 |
| 20260830160603 | 92 | 135 | 6.0 | 10.0 | 0.00 | 0.04 | 0.00 | 46 | 1014.9 |
| 20260830160104 | 92 | 127 | 4.0 | 8.0 | 0.00 | 0.04 | 0.00 | 46 | 1014.7 |
| 20260830155602 | 92 | 134 | 4.0 | 9.0 | 0.00 | 0.04 | 0.00 | 46 | 1014.7 |
| 20260830155058 | 92 | 139 | 5.0 | 9.0 | 0.00 | 0.04 | 0.00 | 46 | 1014.7 |
| 20260830154611 | 91 | 124 | 4.0 | 9.0 | 0.00 | 0.04 | 0.00 | 46 | 1014.7 |
| 20260830154103 | 91 | 78 | 4.0 | 9.0 | 0.00 | 0.04 | 0.00 | 47 | 1014.6 |
| 20260830153602 | 91 | 100 | 5.0 | 9.0 | 0.00 | 0.04 | 0.00 | 47 | 1014.7 |
| 20260830153111 | 90 | 146 | 5.0 | 9.0 | 0.00 | 0.04 | 0.00 | 48 | 1014.7 |
| 20260830152558 | 90 | 107 | 5.0 | 8.0 | 0.00 | 0.04 | 0.00 | 48 | 1014.6 |
| 20260830152058 | 90 | 121 | 4.0 | 7.0 | 0.00 | 0.04 | 0.00 | 50 | 1014.6 |
| 20260830151611 | 89 | 98 | 4.0 | 7.0 | 0.00 | 0.04 | 0.00 | 51 | 1014.6 |
| 20260830151058 | 88 | 146 | 2.0 | 6.0 | 0.00 | 0.04 | 0.00 | 53 | 1014.7 |
| 20260830150600 | 88 | 108 | 1.0 | 3.0 | 0.00 | 0.04 | 0.00 | 55 | 1014.7 |
| 20260830150105 | 87 | 91 | 0.0 | 2.0 | 0.00 | 0.04 | 0.00 | 56 | 1014.7 |
| 20260830145559 | 87 | 0 | 0.0 | 4.0 | 0.00 | 0.04 | 0.00 | 58 | 1014.9 |
| 20260830145059 | 87 | 89 | 1.0 | 5.0 | 0.00 | 0.04 | 0.00 | 58 | 1014.9 |
| 20260830144607 | 87 | 0 | 2.0 | 5.0 | 0.00 | 0.04 | 0.00 | 59 | 1014.9 |
| 20260830144100 | 87 | 50 | 2.0 | 4.0 | 0.00 | 0.04 | 0.00 | 58 | 1014.7 |
| 20260830143559 | 86 | 43 | 2.0 | 5.0 | 0.00 | 0.04 | 0.00 | 60 | 1014.7 |
| 20260830143114 | 86 | 349 | 3.0 | 5.0 | 0.00 | 0.04 | 0.00 | 61 | 1014.9 |
| 20260830142559 | 85 | 51 | 3.0 | 5.0 | 0.00 | 0.04 | 0.00 | 62 | 1014.7 |
| 20260830142100 | 85 | 65 | 2.0 | 5.0 | 0.00 | 0.04 | 0.00 | 65 | 1014.7 |
| 20260830141605 | 84 | 65 | 3.0 | 5.0 | 0.00 | 0.04 | 0.00 | 66 | 1014.7 |
| 20260830141102 | 83 | 60 | 2.0 | 3.0 | 0.00 | 0.04 | 0.00 | 68 | 1014.6 |
| 20260830140603 | 83 | 53 | 2.0 | 3.0 | 0.00 | 0.04 | 0.00 | 69 | 1014.6 |
| 20260830140103 | 82 | 63 | 2.0 | 3.0 | 0.00 | 0.04 | 0.00 | 69 | 1014.5 |
| 20260830135559 | 82 | 63 | 1.0 | 3.0 | 0.00 | 0.04 | 0.00 | 70 | 1014.4 |
| 20260830135059 | 82 | 51 | 1.0 | 3.0 | 0.00 | 0.04 | 0.00 | 71 | 1014.3 |
| 20260830134610 | 82 | 66 | 1.0 | 3.0 | 0.00 | 0.04 | 0.00 | 71 | 1014.2 |
| 20260830134059 | 82 | 56 | 1.0 | 3.0 | 0.00 | 0.04 | 0.00 | 71 | 1014.1 |
| 20260830133559 | 81 | 67 | 1.0 | 3.0 | 0.00 | 0.04 | 0.00 | 72 | 1014.0 |
| 20260830133112 | 81 | 0 | 0.0 | 3.0 | 0.00 | 0.04 | 0.00 | 72 | 1013.9 |
| 20260830132558 | 81 | 64 | 1.0 | 4.0 | 0.00 | 0.04 | 0.00 | 72 | 1013.9 |
| 20260830132058 | 81 | 58 | 1.0 | 5.0 | 0.00 | 0.04 | 0.00 | 72 | 1013.8 |
| 20260830131606 | 81 | 0 | 2.0 | 6.0 | 0.00 | 0.04 | 0.00 | 73 | 1013.7 |
| 20260830131059 | 81 | 51 | 2.0 | 6.0 | 0.00 | 0.04 | 0.00 | 73 | 1013.6 |
| 20260830130559 | 81 | 58 | 3.0 | 7.0 | 0.00 | 0.04 | 0.00 | 73 | 1013.6 |
| 20260830130109 | 81 | 59 | 4.0 | 7.0 | 0.00 | 0.04 | 0.00 | 72 | 1013.4 |
| 20260830125559 | 81 | 71 | 1.0 | 4.0 | 0.00 | 0.04 | 0.00 | 73 | 1013.3 |
| 20260830125058 | 81 | 76 | 1.0 | 4.0 | 0.00 | 0.04 | 0.00 | 74 | 1013.3 |
| 20260830124602 | 80 | 100 | 2.0 | 4.0 | 0.00 | 0.04 | 0.00 | 75 | 1013.3 |
| 20260830124058 | 80 | 103 | 2.0 | 3.0 | 0.00 | 0.04 | 0.00 | 75 | 1013.3 |
| 20260830123558 | 81 | 127 | 0.0 | 4.0 | 0.00 | 0.04 | 0.00 | 74 | 1013.2 |
| 20260830123127 | 81 | 115 | 1.0 | 4.0 | 0.00 | 0.04 | 0.00 | 75 | 1013.0 |
| 20260830122559 | 81 | 107 | 1.0 | 2.0 | 0.00 | 0.04 | 0.00 | 75 | 1013.0 |
| 20260830122102 | 81 | 92 | 0.0 | 2.0 | 0.00 | 0.04 | 0.00 | 74 | 1013.0 |
| 20260830121608 | 81 | 0 | 0.0 | 0.0 | 0.00 | 0.04 | 0.00 | 73 | 1012.9 |
| 20260830121102 | 81 | 0 | 0.0 | 0.0 | 0.00 | 0.04 | 0.00 | 72 | 1012.9 |
| 20260830120558 | 81 | 0 | 0.0 | 0.0 | 0.00 | 0.04 | 0.00 | 72 | 1012.8 |
| 20260830120109 | 81 | 0 | 0.0 | 0.0 | 0.00 | 0.04 | 0.00 | 71 | 1012.8 |
| 20260830115558 | 81 | 0 | 0.0 | 0.0 | 0.00 | 0.04 | 0.00 | 70 | 1012.7 |
| 20260830115058 | 81 | 0 | 0.0 | 0.0 | 0.00 | 0.04 | 0.00 | 70 | 1012.7 |
| 20260830114610 | 81 | 0 | 0.0 | 0.0 | 0.00 | 0.04 | 0.00 | 70 | 1012.7 |
| 20260830114057 | 81 | 0 | 0.0 | 0.0 | 0.00 | 0.04 | 0.00 | 70 | 1012.7 |
| 20260830113558 | 81 | 0 | 0.0 | 0.0 | 0.00 | 0.04 | 0.00 | 71 | 1012.7 |
| 20260830113104 | 81 | 0 | 0.0 | 0.0 | 0.00 | 0.04 | 0.00 | 71 | 1012.6 |
| 20260830112558 | 81 | 0 | 0.0 | 0.0 | 0.00 | 0.04 | 0.00 | 71 | 1012.7 |
| 20260830112100 | 81 | 0 | 0.0 | 0.0 | 0.00 | 0.04 | 0.00 | 71 | 1012.7 |
| 20260830111605 | 81 | 0 | 0.0 | 0.0 | 0.00 | 0.04 | 0.00 | 72 | 1012.7 |
| 20260830111100 | 80 | 0 | 0.0 | 0.0 | 0.00 | 0.04 | 0.00 | 72 | 1012.7 |
| 20260830110600 | 80 | 0 | 0.0 | 0.0 | 0.00 | 0.04 | 0.00 | 73 | 1012.6 |
| 20260830110108 | 81 | 0 | 0.0 | 0.0 | 0.00 | 0.04 | 0.00 | 72 | 1012.6 |
| 20260830105600 | 81 | 0 | 0.0 | 0.0 | 0.00 | 0.04 | 0.00 | 72 | 1012.5 |
| 20260830105059 | 81 | 0 | 0.0 | 0.0 | 0.00 | 0.04 | 0.00 | 72 | 1012.5 |
| 20260830104602 | 81 | 0 | 0.0 | 0.0 | 0.00 | 0.04 | 0.00 | 72 | 1012.5 |
| 20260830104059 | 81 | 0 | 0.0 | 0.0 | 0.00 | 0.04 | 0.00 | 72 | 1012.6 |
| 20260830103559 | 81 | 0 | 0.0 | 0.0 | 0.00 | 0.04 | 0.00 | 72 | 1012.6 |
| 20260830103104 | 81 | 0 | 0.0 | 0.0 | 0.00 | 0.04 | 0.00 | 72 | 1012.5 |
| 20260830102559 | 81 | 0 | 0.0 | 0.0 | 0.00 | 0.04 | 0.00 | 71 | 1012.5 |
| 20260830102100 | 81 | 0 | 0.0 | 0.0 | 0.00 | 0.04 | 0.00 | 72 | 1012.4 |
| 20260830101606 | 81 | 0 | 0.0 | 1.0 | 0.00 | 0.04 | 0.00 | 72 | 1012.4 |
| 20260830101059 | 81 | 0 | 0.0 | 1.0 | 0.00 | 0.04 | 0.00 | 71 | 1012.5 |
| 20260830100601 | 81 | 0 | 0.0 | 1.0 | 0.00 | 0.04 | 0.00 | 70 | 1012.5 |
| 20260830100106 | 81 | 0 | 0.0 | 1.0 | 0.00 | 0.04 | 0.00 | 70 | 1012.4 |
| 20260830095559 | 81 | 342 | 0.0 | 0.0 | 0.00 | 0.04 | 0.00 | 72 | 1012.4 |
| 20260830095102 | 81 | 0 | 0.0 | 1.0 | 0.00 | 0.04 | 0.00 | 71 | 1012.4 |
| 20260830094602 | 81 | 0 | 0.0 | 1.0 | 0.00 | 0.04 | 0.00 | 72 | 1012.4 |
| 20260830094059 | 81 | 0 | 0.0 | 1.0 | 0.00 | 0.04 | 0.00 | 72 | 1012.4 |
| 20260830093618 | 81 | 0 | 0.0 | 1.0 | 0.00 | 0.04 | 0.00 | 72 | 1012.3 |
| 20260830093114 | 81 | 0 | 0.0 | 1.0 | 0.00 | 0.04 | 0.00 | 73 | 1012.3 |